Sunol, Nebraska
Current Conditions -  °F | °C
As of 8:53 AM on Wednesday 28 Jan 2015 (Local Time) from KSNY Reporting Station
Clear Clear  
Wind Chill: 52°   Ceiling: Unl
Heat Index: 52°   Visibility: 10mi
Dew Point: 31°   Wind: 26mph
Humidity: 45%   Direction: 310°NW
Pressure: 29.97"   Gusts: 37mph
Location:  41.2256°N, 102.681°W
Report Text: KSNY 281553Z AUTO 31023G32KT 10SM CLR 11/M01 A2997 RMK AO2 PK WND 32032/1545 SLP142 T01111006
Loading
Personal Weather Stations






























Interactive Weather Map New forecast layout! Learn more

10-Day Weather Forecast

Advertisements
Track Severe Weather on mobile